Change the Weather History Date:

Monday, August 18, 2014

  Actual Average (KEWR) Record (KEWR)
Temperature  
Mean Temperature 75 °F 76 °F  
Max Temperature 86 °F 84 °F 97 °F (2002)
Min Temperature 64 °F 68 °F 52 °F (1941)
Degree Days  
Heating Degree Days 0 0  
Month to date heating degree days 0  
Since 1 June heating degree days 17  
Since 1 July heating degree days 0  
Cooling Degree Days 10 11  
Month to date cooling degree days 209  
Year to date cooling degree days 907  
Since 1 June cooling degree days 831  
Growing Degree Days 25 (Base 50)    
Moisture  
Dew Point 56 °F    
Average Humidity 52    
Maximum Humidity 78    
Minimum Humidity 35    
Precipitation  
Precipitation 0.00 in 0.12 in 1.60 in (1955)
Month to date precipitation 2.37  
Year to date precipitation 30.04  
Snow  
Snow 0.00 in 0.00 in 0.00 in (2002)
Month to date snowfall 0.0  
Since 1 July snowfall 0.0  
Snow Depth -    
Sea Level Pressure  
Sea Level Pressure 29.89 in    
Wind  
Wind Speed 6 mph (NNW)    
Max Wind Speed 15 mph    
Max Gust Speed 21 mph    
Visibility 10 miles    
Events      
T = Trace of Precipitation, MM = Missing Value Source: NWS Daily Summary

Daily Weather History Graph

Daily Weather History Graph

Search for Another Location

Airport or City:

Trip Planner

Search our weather history database for the weather conditions in past years. The results will help you decide how hot, cold, wet, or windy it might be!

Date:

Astronomy

Aug. 18, 2014 Rise Set
Actual Time 6:10 AM EDT 7:50 PM EDT
Civil Twilight 5:41 AM EDT 8:19 PM EDT
Nautical Twilight 5:06 AM EDT 8:54 PM EDT
Astronomical Twilight 4:28 AM EDT 9:31 PM EDT
Moon 12:15 AM EDT (8/18) 2:51 PM EDT (8/18)
Length of Visible Light 14h 38m
Length of Day
13h 40m
Last Quarter, 38% of the Moon is Illuminated
Aug 18
Last Quarter
Aug 25
New
Sep 2
First Quarter
Sep 8
Full
Sep 15
Last Quarter

Hourly Weather History & Observations

Time (EDT) Temp. Heat Index Dew Point Humidity Pressure Visibility Wind Dir Wind Speed Gust Speed Precip Events Conditions
12:15 AM 72.0 °F - 57.6 °F 60% 29.92 in 10.0 mi NNW 5.8 mph - N/A   Clear
12:35 AM 70.9 °F - 57.6 °F 63% 29.92 in 10.0 mi NW 4.6 mph - N/A   Clear
12:55 AM 70.9 °F - 57.6 °F 63% 29.92 in 10.0 mi NW 3.5 mph - N/A   Clear
1:15 AM 70.3 °F - 57.4 °F 63% 29.91 in 10.0 mi NW 5.8 mph - N/A   Clear
1:35 AM 70.3 °F - 57.2 °F 63% 29.91 in 10.0 mi WNW 4.6 mph - N/A   Clear
1:55 AM 70.5 °F - 57.4 °F 63% 29.91 in 10.0 mi West 3.5 mph - N/A   Clear
2:15 AM 69.6 °F - 57.2 °F 65% 29.91 in 10.0 mi Calm Calm - N/A   Clear
2:35 AM 68.4 °F - 57.2 °F 67% 29.91 in 10.0 mi Calm Calm - N/A   Clear
3:15 AM 67.8 °F - 57.2 °F 69% 29.90 in 10.0 mi Calm Calm - N/A   Clear
3:35 AM 67.1 °F - 57.2 °F 70% 29.90 in 10.0 mi Calm Calm - N/A   Clear
3:55 AM 67.6 °F - 56.8 °F 68% 29.90 in 10.0 mi NNW 6.9 mph - N/A   Clear
4:15 AM 67.8 °F - 57.2 °F 69% 29.90 in 10.0 mi NNW 6.9 mph - N/A   Clear
4:35 AM 66.9 °F - 57.2 °F 71% 29.90 in 10.0 mi NW 5.8 mph - N/A   Clear
4:55 AM 67.1 °F - 57.2 °F 70% 29.90 in 10.0 mi NW 5.8 mph - N/A   Clear
5:15 AM 66.4 °F - 57.2 °F 72% 29.91 in 10.0 mi WNW 4.6 mph - N/A   Clear
5:35 AM 66.2 °F - 57.2 °F 73% 29.91 in 10.0 mi Calm Calm - N/A   Clear
5:55 AM 66.0 °F - 57.2 °F 73% 29.92 in 10.0 mi WNW 3.5 mph - N/A   Clear
6:15 AM 64.6 °F - 57.6 °F 78% 29.92 in 10.0 mi Calm Calm - N/A   Clear
6:35 AM 64.4 °F - 57.6 °F 78% 29.92 in 10.0 mi West 4.6 mph - N/A   Clear
6:55 AM 64.6 °F - 57.7 °F 78% 29.93 in 10.0 mi Calm Calm - N/A   Clear
7:15 AM 65.3 °F - 58.1 °F 77% 29.93 in 10.0 mi Calm Calm - N/A   Clear
7:35 AM 66.9 °F - 58.3 °F 74% 29.94 in 10.0 mi Calm Calm - N/A   Clear
7:55 AM 68.4 °F - 58.5 °F 71% 29.95 in 10.0 mi NW 4.6 mph - N/A   Clear
8:15 AM 69.8 °F - 58.1 °F 66% 29.96 in 10.0 mi NNW 5.8 mph - N/A   Clear
8:35 AM 70.7 °F - 57.7 °F 63% 29.95 in 10.0 mi NW 5.8 mph - N/A   Clear
8:55 AM 71.8 °F - 58.1 °F 62% 29.95 in 10.0 mi North 5.8 mph - N/A   Clear
9:15 AM 72.9 °F - 57.9 °F 59% 29.95 in 10.0 mi NW 6.9 mph - N/A   Clear
9:35 AM 74.3 °F - 58.3 °F 57% 29.94 in 10.0 mi NNW 9.2 mph - N/A   Clear
9:55 AM 75.2 °F - 58.5 °F 56% 29.94 in 10.0 mi NNW 6.9 mph - N/A   Clear
10:15 AM 76.1 °F - 59.2 °F 56% 29.94 in 10.0 mi NW 8.1 mph - N/A   Clear
10:35 AM 77.4 °F - 58.6 °F 52% 29.94 in 10.0 mi North 6.9 mph - N/A   Clear
10:55 AM 78.4 °F - 58.5 °F 50% 29.93 in 10.0 mi North 9.2 mph - N/A   Clear
11:15 AM 79.3 °F - 58.5 °F 49% 29.92 in 10.0 mi North 8.1 mph - N/A   Clear
11:35 AM 79.9 °F - 58.5 °F 48% 29.91 in 10.0 mi WNW 8.1 mph - N/A   Scattered Clouds
11:55 AM 80.8 °F 81.0 °F 57.6 °F 45% 29.91 in 10.0 mi NW 12.7 mph 16.1 mph N/A   Scattered Clouds
12:15 PM 82.0 °F 81.8 °F 57.7 °F 43% 29.90 in 10.0 mi North 11.5 mph 16.1 mph N/A   Scattered Clouds
12:35 PM 82.2 °F 81.6 °F 55.6 °F 40% 29.90 in 10.0 mi NW 15.0 mph 20.7 mph N/A   Scattered Clouds
12:55 PM 82.8 °F 82.4 °F 57.2 °F 42% 29.89 in 10.0 mi NW 10.4 mph - N/A   Clear
1:15 PM 81.9 °F 81.6 °F 56.5 °F 42% 29.88 in 10.0 mi North 10.4 mph - N/A   Scattered Clouds
1:35 PM 82.4 °F 81.9 °F 56.5 °F 41% 29.87 in 10.0 mi NNW 6.9 mph - N/A   Scattered Clouds
1:55 PM 82.9 °F 82.4 °F 56.7 °F 41% 29.87 in 10.0 mi NW 9.2 mph - N/A   Scattered Clouds
2:15 PM 83.5 °F 82.8 °F 56.7 °F 40% 29.87 in 10.0 mi NW 12.7 mph 19.6 mph N/A   Mostly Cloudy
2:35 PM 83.3 °F 82.5 °F 55.9 °F 39% 29.86 in 10.0 mi NW 11.5 mph 19.6 mph N/A   Mostly Cloudy
2:55 PM 84.7 °F 83.7 °F 56.7 °F 38% 29.86 in 10.0 mi NNW 12.7 mph - N/A   Scattered Clouds
3:15 PM 85.1 °F 84.1 °F 57.0 °F 38% 29.86 in 10.0 mi WNW 15.0 mph - N/A   Scattered Clouds
3:35 PM 85.3 °F 84.1 °F 56.1 °F 37% 29.85 in 10.0 mi WNW 10.4 mph 18.4 mph N/A   Scattered Clouds
3:55 PM 85.1 °F 83.8 °F 55.6 °F 36% 29.85 in 10.0 mi WNW 12.7 mph - N/A   Scattered Clouds
4:15 PM 85.5 °F 84.3 °F 56.1 °F 37% 29.84 in 10.0 mi NNW 9.2 mph - N/A   Scattered Clouds
4:35 PM 86.0 °F 84.7 °F 56.1 °F 36% 29.84 in 10.0 mi WNW 12.7 mph 16.1 mph N/A   Scattered Clouds
4:55 PM 85.1 °F 83.8 °F 55.4 °F 36% 29.83 in 10.0 mi NW 10.4 mph - N/A   Scattered Clouds
5:15 PM 84.7 °F 83.6 °F 55.4 °F 37% 29.84 in 10.0 mi NW 9.2 mph 18.4 mph N/A   Clear
5:35 PM 85.1 °F 83.8 °F 55.4 °F 36% 29.84 in 10.0 mi WNW 9.2 mph - N/A   Clear
5:55 PM 84.7 °F 83.4 °F 54.7 °F 36% 29.84 in 10.0 mi NW 11.5 mph - N/A   Scattered Clouds
6:15 PM 84.6 °F 83.2 °F 54.7 °F 36% 29.84 in 10.0 mi NW 8.1 mph - N/A   Scattered Clouds
6:35 PM 84.2 °F 82.8 °F 53.4 °F 35% 29.84 in 10.0 mi NNW 9.2 mph - N/A   Clear
6:55 PM 83.5 °F 82.2 °F 54.0 °F 36% 29.84 in 10.0 mi NW 6.9 mph - N/A   Clear
7:15 PM 82.8 °F 81.6 °F 53.6 °F 36% 29.84 in 10.0 mi NW 8.1 mph - N/A   Clear
7:35 PM 81.7 °F 81.0 °F 53.6 °F 38% 29.85 in 10.0 mi NW 5.8 mph - N/A   Clear
7:55 PM 81.0 °F 80.5 °F 53.6 °F 39% 29.85 in 10.0 mi NNW 3.5 mph - N/A   Clear
8:15 PM 81.0 °F 80.5 °F 54.0 °F 39% 29.86 in 10.0 mi Calm Calm - N/A   Clear
8:35 PM 80.8 °F 80.5 °F 54.5 °F 40% 29.86 in 10.0 mi North 3.5 mph - N/A   Mostly Cloudy
8:55 PM 80.8 °F 80.5 °F 54.3 °F 40% 29.86 in 10.0 mi North 5.8 mph - N/A   Mostly Cloudy
9:15 PM 79.9 °F - 55.0 °F 42% 29.87 in 10.0 mi North 3.5 mph - N/A   Scattered Clouds
9:35 PM 79.2 °F - 54.5 °F 42% 29.88 in 10.0 mi NNE 4.6 mph - N/A   Clear
9:55 PM 78.8 °F - 54.0 °F 42% 29.88 in 10.0 mi NNE 3.5 mph - N/A   Clear
10:15 PM 78.1 °F - 53.6 °F 43% 29.87 in 10.0 mi NNE 3.5 mph - N/A   Clear
10:35 PM 77.7 °F - 53.8 °F 43% 29.87 in 10.0 mi NNE 3.5 mph - N/A   Clear
10:55 PM 77.0 °F - 53.8 °F 44% 29.88 in 10.0 mi NNE 3.5 mph - N/A   Clear
11:15 PM 77.0 °F - 53.8 °F 44% 29.88 in 10.0 mi NNE 3.5 mph - N/A   Clear
11:35 PM 75.0 °F - 55.2 °F 50% 29.88 in 10.0 mi North 3.5 mph - N/A   Clear